PDT,Max TemperatureF,Mean TemperatureF,Min TemperatureF,Max Dew PointF,MeanDew PointF,Min DewpointF,Max Humidity, Mean Humidity, Min Humidity, Max Sea Level PressureIn, Mean Sea Level PressureIn, Min Sea Level PressureIn, Max VisibilityMiles, Mean VisibilityMiles, Min VisibilityMiles, Max Wind SpeedMPH, Mean Wind SpeedMPH, Max Gust SpeedMPH,PrecipitationIn, CloudCover, Events, WindDirDegrees
2013-9-1,84,74,64,57,53,48,73,50,32,30.11,30.07,30.03,10,10,10,18,7,22,0.00,0,,295
2013-9-2,86,75,64,55,54,48,68,51,29,30.09,30.06,30.03,10,10,9,20,7,24,0.00,0,,304
2013-9-3,84,72,59,59,56,54,94,59,35,30.12,30.08,30.06,10,10,7,18,8,23,0.00,1,,302
2013-9-4,86,70,55,54,50,46,82,53,25,30.14,30.11,30.08,10,10,7,20,5,25,0.00,0,,310
2013-9-5,86,70,53,50,48,43,77,48,22,30.13,30.11,30.07,10,10,4,20,5,28,0.00,0,,310
2013-9-6,89,71,53,52,46,36,82,46,15,30.13,30.08,30.03,10,10,6,21,6,26,0.00,0,,304
2013-9-7,89,70,50,46,36,27,66,32,10,30.10,30.06,30.02,10,10,9,18,6,25,0.00,0,,309
2013-9-8,86,72,59,43,36,28,40,26,14,30.06,30.01,29.95,10,10,9,18,7,22,0.00,0,,302
2013-9-9,86,75,64,46,42,37,49,33,21,30.02,29.96,29.91,10,10,8,17,6,25,0.00,0,,302
2013-9-10,86,72,59,43,40,37,51,31,19,30.03,29.97,29.93,10,10,7,16,7,25,0.00,0,,296
2013-9-11,80,68,55,45,41,37,59,39,24,30.10,30.07,30.04,10,10,9,18,7,26,0.00,0,,303
2013-9-12,82,68,53,48,43,36,67,44,20,30.10,30.06,30.02,10,10,7,17,7,22,0.00,0,,303
2013-9-13,82,68,53,50,47,45,72,47,26,30.05,29.98,29.91,10,10,8,18,7,24,0.00,0,,292
2013-9-14,86,68,51,50,47,45,76,47,23,29.95,29.92,29.88,10,10,8,20,6,23,0.00,0,,306
2013-9-15,89,71,53,50,46,30,77,47,12,30.01,29.96,29.93,10,10,8,20,4,25,0.00,0,,299
2013-9-16,89,70,50,50,42,25,76,46,10,30.02,29.98,29.93,10,10,7,20,5,31,0.00,0,,160
2013-9-17,73,60,46,48,44,37,71,53,36,29.97,29.93,29.88,10,10,6,23,7,32,0.00,0,,301
2013-9-18,71,58,46,45,41,37,76,54,33,29.99,29.95,29.91,10,10,8,18,10,24,0.00,0,,298
2013-9-19,84,62,41,43,33,19,81,43,9,29.99,29.96,29.92,10,10,8,18,6,25,0.00,0,,114
2013-9-20,84,64,44,39,33,25,57,33,12,29.97,29.94,29.92,10,10,8,20,6,25,0.00,0,,298
2013-9-21,68,58,48,48,43,36,93,56,40,29.97,29.92,29.85,10,9,3,26,15,36,0.02,2,Rain,305
2013-9-22,57,50,44,45,40,37,93,69,51,30.05,29.96,29.88,10,10,7,28,19,36,0.00,4,Rain,304
2013-9-23,78,58,39,45,39,27,93,59,16,30.10,30.06,30.04,10,10,8,15,5,20,0.00,0,,290
2013-9-24,77,59,41,41,35,28,81,45,17,30.09,30.03,29.95,10,10,8,22,7,30,0.00,0,,310
2013-9-25,60,53,46,45,39,32,87,61,44,29.95,29.86,29.78,10,9,6,26,18,36,0.00,2,,298
2013-9-26,55,48,41,39,33,28,87,59,38,30.01,29.88,29.79,10,10,8,23,17,33,0.00,1,,298
2013-9-27,66,50,35,32,29,21,75,46,19,30.17,30.10,30.02,10,10,7,16,5,22,0.00,0,,316
2013-9-28,73,53,33,28,24,18,70,37,12,30.21,30.17,30.13,10,10,9,15,4,21,0.00,0,,132
2013-9-29,75,56,37,28,22,10,60,29,8,30.21,30.18,30.14,10,10,8,20,7,25,0.00,0,,302
2013-9-30,69,61,53,46,38,27,77,44,28,30.16,30.11,30.04,10,10,7,23,14,29,0.00,0,Rain,302